createdAt,value
2023-11-19T00:01:08.449Z,91.5
2023-11-19T00:02:49.231Z,91
2023-11-19T00:04:30.109Z,91.2
2023-11-19T00:06:10.679Z,91.2
2023-11-19T00:07:51.152Z,91
2023-11-19T00:09:31.603Z,91.2
2023-11-19T00:11:12.110Z,91.5
2023-11-19T00:12:52.713Z,90.9
2023-11-19T00:14:33.295Z,91.5
2023-11-19T00:16:13.948Z,91.1
2023-11-19T00:17:54.666Z,91.5
2023-11-19T00:19:37.218Z,90.3
2023-11-19T00:21:17.753Z,91.5
2023-11-19T00:22:58.207Z,91.2
2023-11-19T00:24:38.860Z,91.3
2023-11-19T00:26:19.348Z,91.1
2023-11-19T00:27:59.800Z,90.8
2023-11-19T00:29:40.544Z,91.4
2023-11-19T00:31:21.138Z,91.3
2023-11-19T00:33:01.894Z,90.8
2023-11-19T00:34:42.590Z,91.2
2023-11-19T00:36:23.190Z,91.5
2023-11-19T00:38:03.656Z,91.2
2023-11-19T00:39:44.095Z,91.8
2023-11-19T00:41:24.548Z,91.2
2023-11-19T00:43:05.080Z,91.1
2023-11-19T00:44:52.488Z,91.8
2023-11-19T00:46:33.093Z,91.5
2023-11-19T00:48:13.711Z,91.2
2023-11-19T00:49:54.203Z,92
2023-11-19T00:51:34.662Z,91.9
2023-11-19T00:53:15.431Z,92
2023-11-19T00:54:55.957Z,92
2023-11-19T00:56:36.464Z,91.5
2023-11-19T00:58:17.015Z,91.8
2023-11-19T00:59:57.546Z,91.6
2023-11-19T01:01:38.086Z,91.6
2023-11-19T01:03:18.785Z,91.7
2023-11-19T01:04:59.544Z,92.3
2023-11-19T01:06:50.592Z,91.6
2023-11-19T01:08:31.195Z,91.4
2023-11-19T01:10:11.712Z,91.2
2023-11-19T01:11:52.210Z,91.9
2023-11-19T01:13:32.730Z,91.4
2023-11-19T01:15:13.333Z,91.4
2023-11-19T01:16:54.102Z,91.4
2023-11-19T01:18:34.747Z,91.5
2023-11-19T01:20:15.378Z,91.1
2023-11-19T01:21:55.930Z,91.2
2023-11-19T01:23:36.519Z,91.7
2023-11-19T01:25:17.073Z,91.9
2023-11-19T01:26:57.632Z,91.4
2023-11-19T01:28:38.298Z,91.7
2023-11-19T01:30:18.764Z,91.7
2023-11-19T01:31:59.234Z,91.7
2023-11-19T01:33:39.827Z,91.6
2023-11-19T01:35:20.337Z,91.7
2023-11-19T01:37:02.331Z,92.1
2023-11-19T01:38:42.830Z,91.9
2023-11-19T01:40:23.401Z,91.9
2023-11-19T01:44:01.368Z,91.8
2023-11-19T01:45:41.873Z,92
2023-11-19T01:47:22.383Z,91.6
2023-11-19T01:49:02.990Z,91
2023-11-19T01:50:43.580Z,90.9
2023-11-19T01:52:24.143Z,91.4
2023-11-19T01:54:04.601Z,92.1
2023-11-19T01:55:45.048Z,92.2
2023-11-19T01:57:25.530Z,91.3
2023-11-19T01:59:05.960Z,92
2023-11-19T02:00:46.411Z,91.7
2023-11-19T02:02:27.324Z,92.1
2023-11-19T02:04:08.477Z,91
2023-11-19T02:05:49.518Z,91.3
2023-11-19T02:07:30.098Z,91.5
2023-11-19T02:09:10.589Z,92.1
2023-11-19T02:10:51.094Z,90.8
2023-11-19T02:12:31.552Z,92.1
2023-11-19T02:14:11.998Z,91.3
2023-11-19T02:15:52.729Z,91.2
2023-11-19T02:17:33.513Z,92.2
2023-11-19T02:19:14.195Z,91.5
2023-11-19T02:20:54.661Z,91.7
2023-11-19T02:22:35.098Z,92
2023-11-19T02:24:15.560Z,91.7
2023-11-19T02:25:56.063Z,91.6
2023-11-19T02:27:36.573Z,91.7
2023-11-19T02:29:17.018Z,91.5
2023-11-19T02:30:57.688Z,91.4
2023-11-19T02:32:38.335Z,92
2023-11-19T02:34:18.891Z,92.2
2023-11-19T02:35:59.377Z,91.6
2023-11-19T02:37:39.814Z,91.6
2023-11-19T02:39:20.291Z,91.6
2023-11-19T02:41:00.727Z,92
2023-11-19T02:42:41.184Z,91.6
2023-11-19T02:44:21.688Z,91.6
2023-11-19T02:46:02.329Z,91.7
2023-11-19T02:47:54.421Z,91.9
2023-11-19T02:49:35.000Z,91.1
2023-11-19T02:51:15.544Z,92.3
2023-11-19T02:52:55.993Z,92.2
2023-11-19T02:54:36.571Z,91.1
2023-11-19T02:56:17.104Z,92.3
2023-11-19T02:57:57.712Z,91.7
2023-11-19T02:59:38.343Z,91.3
2023-11-19T03:03:19.103Z,91.9
2023-11-19T03:05:00.056Z,92.1
2023-11-19T03:06:40.517Z,92.1
2023-11-19T03:08:24.124Z,92.1
2023-11-19T03:10:04.682Z,92
2023-11-19T03:11:45.162Z,92.2
2023-11-19T03:13:25.706Z,92.4
2023-11-19T03:15:06.268Z,92.3
2023-11-19T03:16:46.937Z,92
2023-11-19T03:18:27.721Z,92
2023-11-19T03:20:08.148Z,91.9
2023-11-19T03:21:48.620Z,91.9
2023-11-19T03:23:29.064Z,92.4
2023-11-19T03:25:09.673Z,92.2
2023-11-19T03:26:50.293Z,92.5
2023-11-19T03:28:30.854Z,92.3
2023-11-19T03:30:11.289Z,92.6
2023-11-19T03:31:52.007Z,92.6
2023-11-19T03:33:32.630Z,92.2
2023-11-19T03:35:13.195Z,92.1
2023-11-19T03:36:53.632Z,92.3
2023-11-19T03:38:34.300Z,92.3
2023-11-19T03:40:14.770Z,92.5
2023-11-19T03:41:55.304Z,92.3
2023-11-19T03:43:35.841Z,92.2
2023-11-19T03:45:16.337Z,92.7
2023-11-19T03:46:56.864Z,92.5
2023-11-19T03:48:37.350Z,92.7
2023-11-19T03:50:17.785Z,92.6
2023-11-19T03:51:58.230Z,92.6
2023-11-19T03:53:38.693Z,92.3
2023-11-19T03:55:19.240Z,92.6
2023-11-19T03:56:59.711Z,92.4
2023-11-19T03:58:40.236Z,92.6
2023-11-19T04:00:20.732Z,92.5
2023-11-19T04:02:01.256Z,92.2
2023-11-19T04:03:52.314Z,92.5
2023-11-19T04:05:32.739Z,92.5
2023-11-19T04:07:13.203Z,92.5
2023-11-19T04:08:53.673Z,92.4
2023-11-19T04:10:34.194Z,92.4
2023-11-19T04:12:14.762Z,92.7
2023-11-19T04:13:55.249Z,92.5
2023-11-19T04:15:35.677Z,92.5
2023-11-19T04:17:16.134Z,92.7
2023-11-19T04:18:56.625Z,93.1
2023-11-19T04:20:37.161Z,92.9
2023-11-19T04:22:17.678Z,92.8
2023-11-19T04:23:58.157Z,92.9
2023-11-19T04:25:38.645Z,92.7
2023-11-19T04:27:19.274Z,92.8
2023-11-19T04:28:59.740Z,93
2023-11-19T04:30:40.270Z,92.9
2023-11-19T04:32:20.869Z,93.1
2023-11-19T04:34:01.563Z,93.1
2023-11-19T04:35:42.239Z,92.8
2023-11-19T04:37:22.796Z,93.1
2023-11-19T04:39:03.610Z,92.9
2023-11-19T04:40:44.253Z,92.9
2023-11-19T04:42:24.776Z,93.2
2023-11-19T04:44:05.260Z,92.9
2023-11-19T04:45:45.726Z,93.1
2023-11-19T04:47:26.210Z,93.1
2023-11-19T04:49:06.802Z,92.9
2023-11-19T04:50:47.290Z,92.9
2023-11-19T04:52:27.865Z,93.3
2023-11-19T04:54:25.326Z,93.1
2023-11-19T04:56:05.794Z,93.1
2023-11-19T04:57:46.243Z,92.9
2023-11-19T04:59:26.755Z,93.2
2023-11-19T05:01:07.321Z,93
2023-11-19T05:02:48.005Z,93.3
2023-11-19T05:04:29.015Z,92.9
2023-11-19T05:06:09.663Z,92.9
2023-11-19T05:07:50.193Z,93
2023-11-19T05:09:30.657Z,92.9
2023-11-19T05:11:11.108Z,92.9
2023-11-19T05:12:51.560Z,93.2
2023-11-19T05:14:32.174Z,93
2023-11-19T05:16:12.696Z,93
2023-11-19T05:17:53.312Z,92.9
2023-11-19T05:19:33.886Z,92.9
2023-11-19T05:21:14.457Z,93.1
2023-11-19T05:22:55.007Z,92.9
2023-11-19T05:24:35.476Z,93.3
2023-11-19T05:26:15.920Z,93.3
2023-11-19T05:27:56.377Z,93.2
2023-11-19T05:29:36.994Z,93.1
2023-11-19T05:31:17.659Z,92.9
2023-11-19T05:32:58.351Z,93.1
2023-11-19T05:34:51.647Z,93.2
2023-11-19T05:36:32.706Z,93.1
2023-11-19T05:38:13.141Z,93.2
2023-11-19T05:39:53.605Z,93
2023-11-19T05:41:34.056Z,93.3
2023-11-19T05:43:14.606Z,93.3
2023-11-19T05:44:55.068Z,93.1
2023-11-19T05:46:35.613Z,93.1
2023-11-19T05:48:16.262Z,93.1
2023-11-19T05:49:56.768Z,93.3
2023-11-19T05:51:37.187Z,93.1
2023-11-19T05:53:17.659Z,93
2023-11-19T05:54:58.099Z,93.1
2023-11-19T05:56:38.662Z,93.3
2023-11-19T05:58:19.131Z,93.2
2023-11-19T05:59:59.681Z,92.9
2023-11-19T06:01:40.210Z,93.5
2023-11-19T06:03:20.844Z,93
2023-11-19T06:05:01.483Z,93.5
2023-11-19T06:06:42.075Z,93.5
2023-11-19T06:08:22.559Z,92.7
2023-11-19T06:10:03.121Z,93.1
2023-11-19T06:11:43.740Z,92.9
2023-11-19T06:13:26.804Z,93.2
2023-11-19T06:15:07.382Z,93.4
2023-11-19T06:16:47.953Z,93.5
2023-11-19T06:18:28.931Z,93.3
2023-11-19T06:20:09.673Z,93.5
2023-11-19T06:21:50.134Z,93.3
2023-11-19T06:23:30.654Z,93.5
2023-11-19T06:25:11.188Z,92.7
2023-11-19T06:26:52.035Z,93.4
2023-11-19T06:28:32.632Z,93.6
2023-11-19T06:30:13.168Z,93.4
2023-11-19T06:31:53.653Z,93.5
2023-11-19T06:33:34.193Z,93.4
2023-11-19T06:35:14.817Z,93.2
2023-11-19T06:36:55.406Z,93.3
2023-11-19T06:38:35.983Z,93.2
2023-11-19T06:40:16.469Z,93.3
2023-11-19T06:43:54.680Z,93.2
2023-11-19T06:45:35.134Z,93.7
2023-11-19T06:47:15.613Z,93.7
2023-11-19T06:48:56.185Z,93.5
2023-11-19T06:50:36.779Z,93.4
2023-11-19T06:52:17.275Z,93.5
2023-11-19T06:53:57.865Z,93.5
2023-11-19T06:55:38.387Z,93.5
2023-11-19T06:57:18.914Z,93.3
2023-11-19T06:58:59.418Z,93.5
2023-11-19T07:00:40.543Z,93.5
2023-11-19T07:02:21.140Z,93.7
2023-11-19T07:04:03.272Z,93.8
2023-11-19T07:05:44.011Z,93.7
2023-11-19T07:07:24.534Z,93.6
2023-11-19T07:09:04.984Z,93.4
2023-11-19T07:10:45.424Z,93.2
2023-11-19T07:12:25.905Z,93.7
2023-11-19T07:14:06.410Z,93.5
2023-11-19T07:15:46.988Z,93.6
2023-11-19T07:17:27.586Z,93.7
2023-11-19T07:19:08.284Z,93.8
2023-11-19T07:20:48.793Z,93.6
2023-11-19T07:22:29.355Z,93.7
2023-11-19T07:24:10.298Z,93.8
2023-11-19T07:25:50.825Z,93.7
2023-11-19T07:27:31.317Z,93.7
2023-11-19T07:29:11.777Z,93.6
2023-11-19T07:30:52.364Z,93.8
2023-11-19T07:32:32.844Z,93.8
2023-11-19T07:34:13.450Z,93.8
2023-11-19T07:35:54.104Z,93.5
2023-11-19T07:37:34.556Z,93.6
2023-11-19T07:39:15.015Z,93.9
2023-11-19T07:40:59.014Z,93.5
2023-11-19T07:42:39.567Z,93.7
2023-11-19T07:44:20.141Z,93.7
2023-11-19T07:46:00.634Z,94
2023-11-19T07:47:41.349Z,93.6
2023-11-19T07:49:21.960Z,93.9
2023-11-19T07:51:02.435Z,93.6
2023-11-19T07:52:42.966Z,94.1
2023-11-19T07:54:23.481Z,93.6
2023-11-19T07:56:04.005Z,93.7
2023-11-19T07:57:44.532Z,93.4
2023-11-19T07:59:25.070Z,94.1
2023-11-19T08:01:05.656Z,93.7
2023-11-19T08:02:46.522Z,93.7
2023-11-19T08:04:27.547Z,93.7
2023-11-19T08:06:08.287Z,93.9
2023-11-19T08:07:48.705Z,93.8
2023-11-19T08:09:29.183Z,93.9
2023-11-19T08:11:09.792Z,93.7
2023-11-19T08:12:50.275Z,93.4
2023-11-19T08:14:30.807Z,93.4
2023-11-19T08:16:11.319Z,93.8
2023-11-19T08:17:52.113Z,93.7
2023-11-19T08:19:33.922Z,93.5
2023-11-19T08:21:14.484Z,93.9
2023-11-19T08:22:54.990Z,94.2
2023-11-19T08:24:35.512Z,93.7
2023-11-19T08:26:17.122Z,94.4
2023-11-19T08:28:01.354Z,94
2023-11-19T08:29:41.824Z,94.1
2023-11-19T08:33:19.693Z,93.9
2023-11-19T08:35:00.153Z,94.1
2023-11-19T08:36:40.737Z,94.1
2023-11-19T08:38:33.107Z,93.9
2023-11-19T08:40:13.690Z,93.9
2023-11-19T08:41:54.150Z,93.7
2023-11-19T08:43:34.595Z,94.2
2023-11-19T08:45:15.055Z,94
2023-11-19T08:46:55.533Z,94.4
2023-11-19T08:48:35.961Z,94.4
2023-11-19T08:50:16.478Z,94.1
2023-11-19T08:51:57.021Z,94
2023-11-19T08:53:37.694Z,94.3
2023-11-19T08:55:18.296Z,93.8
2023-11-19T08:56:58.818Z,94.7
2023-11-19T08:58:39.314Z,94.1
2023-11-19T09:00:19.810Z,94.2
2023-11-19T09:03:24.574Z,94.3
2023-11-19T09:05:05.289Z,94
2023-11-19T09:06:45.860Z,94.4
2023-11-19T09:08:26.523Z,94.1
2023-11-19T09:10:06.990Z,94.3
2023-11-19T09:11:47.531Z,94.3
2023-11-19T09:13:27.979Z,95.1
2023-11-19T09:15:08.454Z,94.3
2023-11-19T09:16:49.062Z,94.7
2023-11-19T09:18:29.534Z,94.8
2023-11-19T09:20:10.173Z,94.4
2023-11-19T09:21:50.668Z,94.4
2023-11-19T09:23:31.212Z,94.6
2023-11-19T09:25:11.805Z,94.2
2023-11-19T09:26:52.235Z,94.8
2023-11-19T09:28:32.707Z,94.5
2023-11-19T09:30:13.213Z,93.9
2023-11-19T09:31:53.697Z,94.1
2023-11-19T09:33:34.399Z,94.6
2023-11-19T09:35:15.096Z,94.5
2023-11-19T09:36:55.679Z,94.2
2023-11-19T09:38:36.254Z,94.4
2023-11-19T09:40:16.828Z,94.7
2023-11-19T09:41:57.256Z,94.5
2023-11-19T09:43:37.744Z,94.3
2023-11-19T09:45:18.273Z,94.7
2023-11-19T09:46:58.718Z,94.8
2023-11-19T09:48:39.202Z,94
2023-11-19T09:50:19.811Z,94.4
2023-11-19T09:52:00.499Z,94.7
2023-11-19T09:53:41.243Z,94
2023-11-19T09:55:21.834Z,94.6
2023-11-19T09:57:02.336Z,94.2
2023-11-19T09:58:42.849Z,94.7
2023-11-19T10:00:23.357Z,94.8
2023-11-19T10:02:03.960Z,94.3
2023-11-19T10:03:45.583Z,94.4
2023-11-19T10:05:26.609Z,94.6
2023-11-19T10:07:07.290Z,94.4
2023-11-19T10:08:47.838Z,94.7
2023-11-19T10:10:28.378Z,94.5
2023-11-19T10:12:08.849Z,94.4
2023-11-19T10:13:49.383Z,94.4
2023-11-19T10:15:29.947Z,94.7
2023-11-19T10:17:10.483Z,94.2
2023-11-19T10:18:50.959Z,94.3
2023-11-19T10:20:31.448Z,94.5
2023-11-19T10:22:11.884Z,94.4
2023-11-19T10:23:52.417Z,94.3
2023-11-19T10:25:33.038Z,94.6
2023-11-19T10:27:13.462Z,94.6
2023-11-19T10:28:53.893Z,94.6
2023-11-19T10:30:34.379Z,94.5
2023-11-19T10:32:27.798Z,95
2023-11-19T10:34:08.472Z,94.6
2023-11-19T10:36:03.602Z,94.7
2023-11-19T10:37:44.233Z,94.5
2023-11-19T10:39:24.711Z,94.5
2023-11-19T10:41:05.156Z,94.4
2023-11-19T10:42:45.698Z,95.1
2023-11-19T10:44:26.172Z,94.6
2023-11-19T10:46:06.725Z,93.9
2023-11-19T10:47:47.313Z,94.7
2023-11-19T10:49:27.991Z,94.3
2023-11-19T10:51:08.514Z,94.4
2023-11-19T10:52:49.155Z,94.5
2023-11-19T10:54:46.597Z,94.3
2023-11-19T10:56:27.137Z,94.5
2023-11-19T10:58:07.640Z,94.2
2023-11-19T10:59:48.112Z,94.9
2023-11-19T11:01:28.600Z,94.8
2023-11-19T11:03:09.215Z,94.3
2023-11-19T11:04:49.758Z,94.5
2023-11-19T11:06:30.233Z,94.6
2023-11-19T11:08:10.782Z,94.6
2023-11-19T11:09:52.967Z,94.7
2023-11-19T11:11:33.516Z,94.7
2023-11-19T11:13:14.011Z,94.7
2023-11-19T11:14:54.430Z,94.4
2023-11-19T11:16:35.014Z,94.4
2023-11-19T11:18:15.713Z,94.5
2023-11-19T11:19:56.203Z,94.1
2023-11-19T11:21:36.691Z,94.9
2023-11-19T11:23:17.125Z,94.6
2023-11-19T11:24:57.674Z,94.3
2023-11-19T11:26:38.236Z,94.3
2023-11-19T11:28:18.703Z,94.8
2023-11-19T11:29:59.148Z,94.8
2023-11-19T11:31:39.933Z,95.1
2023-11-19T11:33:20.480Z,94.3
2023-11-19T11:35:00.922Z,94.5
2023-11-19T11:36:41.476Z,94.9
2023-11-19T11:38:21.943Z,94.1
2023-11-19T11:40:02.511Z,94.4
2023-11-19T11:41:43.073Z,94.6
2023-11-19T11:43:23.501Z,94.9
2023-11-19T11:45:06.553Z,94.2
2023-11-19T11:46:47.116Z,94.6
2023-11-19T11:48:27.819Z,94.9
2023-11-19T11:50:08.700Z,94.5
2023-11-19T11:51:53.032Z,94.4
2023-11-19T11:53:33.503Z,94.6
2023-11-19T11:55:14.002Z,94.4
2023-11-19T11:57:11.738Z,94.4
2023-11-19T11:58:54.546Z,94.5
2023-11-19T12:00:35.046Z,94.5
2023-11-19T12:02:15.573Z,94.7
2023-11-19T12:03:56.238Z,94.9
2023-11-19T12:05:36.981Z,94.6
2023-11-19T12:07:17.428Z,94.2
2023-11-19T12:08:57.885Z,94.6
2023-11-19T12:10:38.378Z,94.2
2023-11-19T12:12:18.899Z,94.5
2023-11-19T12:13:59.365Z,94.7
2023-11-19T12:15:40.002Z,94.7
2023-11-19T12:17:20.467Z,94.5
2023-11-19T12:19:01.001Z,94.2
2023-11-19T12:20:41.486Z,94.6
2023-11-19T12:22:21.944Z,94.6
2023-11-19T12:24:02.427Z,94.7
2023-11-19T12:25:43.050Z,94.4
2023-11-19T12:27:23.506Z,94.8
2023-11-19T12:29:08.236Z,94.6
2023-11-19T12:30:50.474Z,94.6
2023-11-19T12:32:31.200Z,94.4
2023-11-19T12:34:11.695Z,94.6
2023-11-19T12:35:53.058Z,94.8
2023-11-19T12:37:33.514Z,94.8
2023-11-19T12:39:14.059Z,94.8
2023-11-19T12:40:54.763Z,95
2023-11-19T12:44:32.712Z,94.9
2023-11-19T12:46:13.384Z,94.5
2023-11-19T12:47:54.126Z,94.3
2023-11-19T12:49:34.593Z,94.3
2023-11-19T12:51:16.034Z,94.4
2023-11-19T12:52:56.531Z,94.5
2023-11-19T12:54:37.173Z,94.4
2023-11-19T12:56:18.037Z,94.7
2023-11-19T12:57:58.596Z,94.6
2023-11-19T12:59:39.163Z,94.3
2023-11-19T13:01:19.729Z,94.8
2023-11-19T13:03:00.492Z,94.9
2023-11-19T13:04:41.110Z,94.4
2023-11-19T13:06:21.628Z,94.4
2023-11-19T13:08:02.056Z,94.3
2023-11-19T13:09:42.606Z,94.2
2023-11-19T13:11:23.218Z,94.3
2023-11-19T13:13:03.723Z,95.1
2023-11-19T13:14:44.290Z,94.3
2023-11-19T13:16:25.478Z,94.4
2023-11-19T13:18:06.312Z,94.6
2023-11-19T13:19:46.887Z,95.2
2023-11-19T13:21:27.386Z,94.5
2023-11-19T13:23:07.792Z,94.6
2023-11-19T13:24:48.324Z,94.4
2023-11-19T13:26:29.155Z,94.4
2023-11-19T13:28:09.570Z,94.7
2023-11-19T13:29:50.042Z,94.6
2023-11-19T13:31:30.723Z,94.6
2023-11-19T13:33:11.484Z,94.5
2023-11-19T13:34:52.140Z,95.1
2023-11-19T13:36:32.618Z,94.8
2023-11-19T13:38:13.015Z,94.6
2023-11-19T13:39:53.577Z,94.3
2023-11-19T13:41:34.164Z,94.5
2023-11-19T13:43:14.599Z,94.1
2023-11-19T13:44:55.044Z,94.9
2023-11-19T13:46:35.508Z,94.6
2023-11-19T13:48:16.135Z,94.3
2023-11-19T13:49:56.620Z,94.7
2023-11-19T13:51:37.217Z,94.5
2023-11-19T13:53:17.647Z,94.4
2023-11-19T13:54:58.106Z,94.5
2023-11-19T13:56:38.678Z,94.6
2023-11-19T13:58:19.346Z,94.8
2023-11-19T13:59:59.860Z,94.6
2023-11-19T14:01:40.321Z,94.7
2023-11-19T14:03:20.973Z,94.9
2023-11-19T14:05:01.555Z,94.1
2023-11-19T14:06:42.003Z,94.6
2023-11-19T14:08:27.326Z,94.4
2023-11-19T14:10:07.884Z,94.1
2023-11-19T14:11:48.418Z,94.7
2023-11-19T14:13:28.957Z,94.4
2023-11-19T14:15:09.391Z,94.5
2023-11-19T14:16:50.136Z,94.2
2023-11-19T14:18:30.741Z,94.5
2023-11-19T14:20:11.173Z,94.5
2023-11-19T14:21:51.727Z,94.7
2023-11-19T14:23:32.185Z,94.2
2023-11-19T14:25:12.629Z,94.1
2023-11-19T14:26:53.288Z,94.5
2023-11-19T14:28:33.746Z,94.6
2023-11-19T14:30:14.213Z,94.6
2023-11-19T14:31:54.706Z,94.9
2023-11-19T14:33:52.191Z,94.4
2023-11-19T14:35:35.398Z,94.3
2023-11-19T14:37:15.843Z,94.7
2023-11-19T14:38:56.305Z,94.8
2023-11-19T14:42:23.273Z,94.6
2023-11-19T14:44:03.704Z,94.4
2023-11-19T14:45:51.006Z,94.5
2023-11-19T14:47:31.759Z,94.3
2023-11-19T14:49:12.233Z,94.7
2023-11-19T14:50:52.693Z,94.7
2023-11-19T14:52:33.221Z,94.7
2023-11-19T14:54:13.715Z,94.5
2023-11-19T14:55:54.163Z,94.1
2023-11-19T14:57:34.711Z,94.7
2023-11-19T14:59:15.184Z,94.6
2023-11-19T15:00:55.839Z,94.3
2023-11-19T15:03:25.824Z,94.5
2023-11-19T15:05:06.642Z,94.3
2023-11-19T15:06:47.130Z,94.3
2023-11-19T15:08:27.578Z,94.5
2023-11-19T15:10:08.059Z,94.3
2023-11-19T15:11:48.593Z,94.6
2023-11-19T15:13:29.085Z,94.4
2023-11-19T15:15:09.516Z,94.7
2023-11-19T15:16:50.167Z,94.5
2023-11-19T15:18:30.735Z,94.4
2023-11-19T15:20:11.191Z,94.4
2023-11-19T15:21:51.753Z,94.4
2023-11-19T15:23:32.243Z,94.6
2023-11-19T15:25:12.752Z,94.4
2023-11-19T15:26:53.209Z,94.4
2023-11-19T15:28:53.551Z,94.5
2023-11-19T15:30:33.982Z,94.5
2023-11-19T15:32:14.454Z,94.4
2023-11-19T15:33:55.004Z,94.6
2023-11-19T15:35:35.536Z,94.1
2023-11-19T15:37:16.131Z,94.4
2023-11-19T15:38:56.631Z,94.2
2023-11-19T15:40:37.223Z,94.5
2023-11-19T15:42:17.698Z,94.3
2023-11-19T15:43:58.160Z,94.3
2023-11-19T15:45:38.887Z,94.1
2023-11-19T15:47:19.481Z,94.4
2023-11-19T15:49:00.027Z,94.5
2023-11-19T15:50:40.585Z,94.2
2023-11-19T15:52:21.047Z,94.2
2023-11-19T15:54:01.496Z,94.5
2023-11-19T15:55:41.963Z,94.6
2023-11-19T15:57:22.416Z,94.5
2023-11-19T15:59:02.926Z,94.4
2023-11-19T16:00:43.560Z,94.5
2023-11-19T16:02:24.303Z,94.6
2023-11-19T16:04:05.403Z,94.4
2023-11-19T16:05:46.253Z,94.4
2023-11-19T16:07:37.112Z,94.4
2023-11-19T16:09:17.565Z,94.4
2023-11-19T16:10:58.023Z,94.3
2023-11-19T16:12:38.486Z,94.3
2023-11-19T16:14:19.137Z,94.2
2023-11-19T16:15:59.707Z,94.4
2023-11-19T16:17:40.437Z,94.6
2023-11-19T16:19:21.163Z,94.5
2023-11-19T16:21:01.568Z,94.4
2023-11-19T16:22:42.042Z,94.6
2023-11-19T16:24:22.504Z,94.3
2023-11-19T16:26:03.009Z,94.5
2023-11-19T16:27:43.818Z,94.4
2023-11-19T16:29:24.374Z,94.6
2023-11-19T16:31:05.025Z,94.3
2023-11-19T16:32:45.688Z,94.2
2023-11-19T16:34:26.251Z,94.7
2023-11-19T16:36:06.690Z,94.2
2023-11-19T16:37:47.177Z,94.4
2023-11-19T16:39:27.618Z,94.4
2023-11-19T16:41:08.085Z,94.3
2023-11-19T16:42:48.550Z,94.4
2023-11-19T16:44:29.134Z,94.4
2023-11-19T16:46:10.240Z,94.1
2023-11-19T16:47:51.272Z,94.8
2023-11-19T16:49:31.972Z,94.4
2023-11-19T16:51:12.430Z,94.7
2023-11-19T16:52:52.899Z,94.4
2023-11-19T16:54:51.109Z,94
2023-11-19T16:56:31.640Z,94.2
2023-11-19T16:58:12.141Z,94.1
2023-11-19T16:59:52.604Z,94.4
2023-11-19T17:01:33.207Z,94.6
2023-11-19T17:03:13.963Z,94.3
2023-11-19T17:04:54.663Z,94.2
2023-11-19T17:06:35.129Z,94.4
2023-11-19T17:08:15.576Z,95
2023-11-19T17:09:56.131Z,93.9
2023-11-19T17:11:36.673Z,94.5
2023-11-19T17:13:17.138Z,94.3
2023-11-19T17:14:57.696Z,94.4
2023-11-19T17:16:38.321Z,94.3
2023-11-19T17:18:18.825Z,94.5
2023-11-19T17:19:59.424Z,94.1
2023-11-19T17:21:39.931Z,94
2023-11-19T17:23:20.478Z,94.7
2023-11-19T17:25:01.069Z,93.9
2023-11-19T17:26:44.999Z,94.3
2023-11-19T17:28:25.848Z,94.3
2023-11-19T17:30:06.335Z,94.5
2023-11-19T17:31:46.863Z,94.4
2023-11-19T17:33:27.376Z,94.5
2023-11-19T17:35:07.936Z,94.4
2023-11-19T17:36:48.432Z,94.1
2023-11-19T17:38:29.403Z,94.2
2023-11-19T17:40:09.864Z,94.6
2023-11-19T17:41:50.314Z,94.3
2023-11-19T17:43:30.792Z,94.3
2023-11-19T17:45:11.314Z,94.3
2023-11-19T17:46:51.783Z,94.6
2023-11-19T17:48:32.301Z,94.2
2023-11-19T17:52:02.186Z,94.7
2023-11-19T17:53:42.789Z,94.6
2023-11-19T17:55:23.275Z,94.4
2023-11-19T17:57:03.729Z,94.6
2023-11-19T17:58:44.210Z,94.3
2023-11-19T18:00:24.665Z,94.4
2023-11-19T18:02:05.134Z,94.6
2023-11-19T18:03:46.137Z,94.1
2023-11-19T18:05:26.853Z,94.3
2023-11-19T18:07:07.559Z,94.5
2023-11-19T18:08:48.115Z,94.1
2023-11-19T18:10:28.606Z,94.3
2023-11-19T18:12:17.416Z,94.6
2023-11-19T18:13:57.915Z,94.4
2023-11-19T18:15:39.079Z,94.6
2023-11-19T18:17:19.719Z,94.3
2023-11-19T18:19:00.419Z,94.4
2023-11-19T18:20:41.243Z,94.5
2023-11-19T18:22:21.735Z,94.5
2023-11-19T18:24:02.207Z,94.4
2023-11-19T18:25:42.697Z,94.6
2023-11-19T18:27:23.201Z,94.9
2023-11-19T18:29:03.655Z,94.3
2023-11-19T18:30:44.203Z,94.6
2023-11-19T18:32:24.880Z,94.5
2023-11-19T18:34:05.822Z,94.6
2023-11-19T18:35:46.714Z,94.6
2023-11-19T18:37:29.282Z,94.2
2023-11-19T18:39:09.765Z,94.4
2023-11-19T18:40:50.354Z,94.4
2023-11-19T18:42:30.798Z,94.2
2023-11-19T18:44:28.119Z,94.4
2023-11-19T18:46:08.648Z,94.2
2023-11-19T18:47:49.454Z,94.4
2023-11-19T18:49:30.173Z,94.4
2023-11-19T18:51:10.642Z,94.5
2023-11-19T18:52:51.095Z,94.3
2023-11-19T18:54:31.750Z,94.7
2023-11-19T18:56:12.203Z,94.6
2023-11-19T18:57:52.724Z,94.3
2023-11-19T18:59:33.282Z,94.4
2023-11-19T19:01:16.252Z,94.3
2023-11-19T19:04:44.296Z,94.6
2023-11-19T19:06:24.862Z,94.4
2023-11-19T19:08:05.341Z,94.5
2023-11-19T19:09:45.932Z,94.6
2023-11-19T19:11:26.489Z,94.5
2023-11-19T19:13:07.051Z,94.2
2023-11-19T19:14:47.617Z,94.5
2023-11-19T19:16:28.148Z,94.3
2023-11-19T19:18:08.859Z,94.4
2023-11-19T19:19:49.325Z,94.5
2023-11-19T19:21:29.771Z,94.2
2023-11-19T19:23:10.577Z,94.1
2023-11-19T19:24:51.091Z,94.7
2023-11-19T19:26:31.559Z,94.4
2023-11-19T19:30:02.563Z,94.1
2023-11-19T19:31:43.168Z,94.2
2023-11-19T19:33:23.729Z,94.4
2023-11-19T19:35:04.178Z,94.7
2023-11-19T19:36:44.638Z,94.3
2023-11-19T19:38:25.183Z,94.5
2023-11-19T19:40:28.466Z,94.6
2023-11-19T19:42:08.935Z,94.7
2023-11-19T19:43:49.384Z,94.5
2023-11-19T19:45:33.066Z,94.4
2023-11-19T19:47:13.763Z,94.4
2023-11-19T19:48:54.420Z,94.4
2023-11-19T19:50:34.976Z,94.5
2023-11-19T19:52:15.555Z,94.2
2023-11-19T19:53:56.005Z,94.4
2023-11-19T19:55:36.487Z,94.6
2023-11-19T19:57:16.917Z,94.3
2023-11-19T19:58:57.377Z,94.2
2023-11-19T20:00:37.831Z,94.6
2023-11-19T20:02:18.392Z,94.6
2023-11-19T20:03:59.307Z,94.4
2023-11-19T20:05:39.992Z,94.4
2023-11-19T20:07:20.468Z,94.3
2023-11-19T20:09:00.960Z,94.3
2023-11-19T20:10:41.387Z,94
2023-11-19T20:12:21.862Z,94.5
2023-11-19T20:14:02.417Z,94.4
2023-11-19T20:15:42.853Z,94.4
2023-11-19T20:17:23.413Z,94.6
2023-11-19T20:19:03.971Z,94.6
2023-11-19T20:20:44.440Z,94.5
2023-11-19T20:22:24.887Z,94.5
2023-11-19T20:24:05.361Z,94.7
2023-11-19T20:25:45.893Z,94.5
2023-11-19T20:27:26.363Z,94
2023-11-19T20:29:10.086Z,94.2
2023-11-19T20:30:50.726Z,94.5
2023-11-19T20:32:31.403Z,94.7
2023-11-19T20:34:28.749Z,94.4
2023-11-19T20:36:09.214Z,94.4
2023-11-19T20:37:49.676Z,94.3
2023-11-19T20:39:30.147Z,94.4
2023-11-19T20:41:13.290Z,94.3
2023-11-19T20:42:53.888Z,94.3
2023-11-19T20:44:34.450Z,94.5
2023-11-19T20:46:14.991Z,94.3
2023-11-19T20:47:55.602Z,94.6
2023-11-19T20:49:36.057Z,94.5
2023-11-19T20:51:16.497Z,94.2
2023-11-19T20:53:00.734Z,94.4
2023-11-19T20:54:41.453Z,94.5
2023-11-19T20:56:22.014Z,94.3
2023-11-19T20:58:02.513Z,94.4
2023-11-19T20:59:42.959Z,94.3
2023-11-19T21:01:23.482Z,94.5
2023-11-19T21:03:05.350Z,94.2
2023-11-19T21:04:50.363Z,94.4
2023-11-19T21:06:30.844Z,94.3
2023-11-19T21:08:11.276Z,94.2
2023-11-19T21:09:51.736Z,94.4
2023-11-19T21:11:32.207Z,94.5
2023-11-19T21:13:12.637Z,94.4
2023-11-19T21:14:53.113Z,94.5
2023-11-19T21:16:33.732Z,94.4
2023-11-19T21:18:14.317Z,94.6
2023-11-19T21:19:55.016Z,94.1
2023-11-19T21:21:35.876Z,94.5
2023-11-19T21:23:16.402Z,94.3
2023-11-19T21:24:57.041Z,94.5
2023-11-19T21:26:37.522Z,94.6
2023-11-19T21:28:17.985Z,94.7
2023-11-19T21:29:58.430Z,94.3
2023-11-19T21:33:28.282Z,94.3
2023-11-19T21:35:08.807Z,94.7
2023-11-19T21:36:49.417Z,94.8
2023-11-19T21:38:30.022Z,94.7
2023-11-19T21:40:10.475Z,94.5
2023-11-19T21:41:51.001Z,94.8
2023-11-19T21:43:31.561Z,94.6
2023-11-19T21:45:12.121Z,94.2
2023-11-19T21:46:52.690Z,94.2
2023-11-19T21:48:33.278Z,94.6
2023-11-19T21:50:13.728Z,94.5
2023-11-19T21:51:54.228Z,94.7
2023-11-19T21:53:34.652Z,94.6
2023-11-19T21:55:15.090Z,94.2
2023-11-19T21:56:55.544Z,94.7
2023-11-19T21:58:36.013Z,94
2023-11-19T22:00:16.457Z,94.5
2023-11-19T22:03:17.377Z,94.4
2023-11-19T22:04:57.980Z,94.7
2023-11-19T22:06:38.551Z,94.2
2023-11-19T22:08:19.957Z,94.7
2023-11-19T22:10:00.584Z,94.5
2023-11-19T22:11:41.107Z,94.3
2023-11-19T22:13:21.581Z,94.3
2023-11-19T22:15:02.018Z,94.5
2023-11-19T22:16:42.453Z,94.5
2023-11-19T22:18:22.958Z,94.6
2023-11-19T22:22:04.959Z,94.5
2023-11-19T22:23:45.394Z,94.5
2023-11-19T22:25:25.900Z,94.5
2023-11-19T22:27:06.430Z,94.6
2023-11-19T22:28:46.963Z,94.4
2023-11-19T22:30:27.445Z,94.5
2023-11-19T22:32:07.876Z,94.5
2023-11-19T22:33:48.328Z,94.4
2023-11-19T22:35:28.841Z,94.4
2023-11-19T22:37:09.344Z,94.6
2023-11-19T22:38:49.804Z,94.3
2023-11-19T22:40:30.274Z,94.5
2023-11-19T22:42:10.719Z,94.9
2023-11-19T22:43:51.167Z,94.3
2023-11-19T22:45:31.661Z,94.3
2023-11-19T22:47:12.077Z,94.3
2023-11-19T22:48:52.569Z,94.7
2023-11-19T22:50:33.116Z,94.6
2023-11-19T22:52:13.577Z,94.5
2023-11-19T22:53:57.764Z,94.5